Time;durP1;ratioP1;P1;durP2;ratioP2;P2;SDS_P1;SDS_P2;PMS_P1;PMS_P2;Temp;Humidity;BMP_temperature;BMP_pressure;BME280_temperature;BME280_humidity;BME280_pressure;Samples;Min_cycle;Max_cycle;Signal;HPM_P1;HPM_P2
2023/06/15 00:00:49;;;;;;;;;;;;;;;;;;5133055;27;1917;-67
2023/06/15 00:03:14;;;;;;;;;;;;;;;;;;5116881;27;1185;-67
2023/06/15 00:05:39;;;;;;;;;;;;;;;;;;5134953;27;899;-67
2023/06/15 00:08:05;;;;;;;;;;;;;;;;;;5133247;27;1332;-67
2023/06/15 00:10:30;;;;;;;;;;;;;;;;;;5134804;27;845;-67
2023/06/15 00:12:55;;;;;;;;;;;;;;;;;;5133113;27;1233;-67
2023/06/15 00:15:21;;;;;;;;;;;;;;;;;;5116295;27;1276;-67
2023/06/15 00:17:47;;;;;;;;;;;;;;;;;;5133366;27;1315;-67
2023/06/15 00:20:13;;;;;;;;;;;;;;;;;;5133679;27;1959;-67
2023/06/15 00:22:40;;;;;;;;;;;;;;;;;;5133445;27;1201;-67
2023/06/15 00:25:05;;;;;;;;;;;;;;;;;;5133559;27;1001;-67
2023/06/15 00:27:31;;;;;;;;;;;;;;;;;;5133477;27;915;-67
2023/06/15 00:29:56;;;;;;;;;;;;;;;;;;5134137;27;900;-67
2023/06/15 00:32:21;;;;;;;;;;;;;;;;;;5133415;27;1010;-67
2023/06/15 00:34:46;;;;;;;;;;;;;;;;;;5134510;27;879;-68
2023/06/15 00:37:12;;;;;;;;;;;;;;;;;;5134631;27;978;-67
2023/06/15 00:39:37;;;;;;;;;;;;;;;;;;5134535;27;887;-67
2023/06/15 00:42:02;;;;;;;;;;;;;;;;;;5132440;27;1901;-67
2023/06/15 00:44:27;;;;;;;;;;;;;;;;;;5116165;27;1471;-67
2023/06/15 00:46:53;;;;;;;;;;;;;;;;;;5134355;27;824;-67
2023/06/15 00:49:20;;;;;;;;;;;;;;;;;;5135391;27;899;-68
2023/06/15 00:51:46;;;;;;;;;;;;;;;;;;5134784;27;903;-68
2023/06/15 00:54:13;;;;;;;;;;;;;;;;;;5134177;27;1462;-68
2023/06/15 00:56:39;;;;;;;;;;;;;;;;;;5133943;27;910;-68
2023/06/15 00:59:05;;;;;;;;;;;;;;;;;;5116383;27;1231;-68
2023/06/15 01:01:30;;;;;;;;;;;;;;;;;;5134981;27;1985;-68
2023/06/15 01:03:57;;;;;;;;;;;;;;;;;;5132581;27;914;-68
2023/06/15 01:06:24;;;;;;;;;;;;;;;;;;5134647;27;864;-68
2023/06/15 01:08:52;;;;;;;;;;;;;;;;;;5133912;27;879;-68
2023/06/15 01:11:17;;;;;;;;;;;;;;;;;;5134830;27;808;-68
2023/06/15 01:13:44;;;;;;;;;;;;;;;;;;5132964;27;1186;-68
2023/06/15 01:16:13;;;;;;;;;;;;;;;;;;5132212;27;848;-68
2023/06/15 01:18:46;;;;;;;;;;;;;;;;;;5132482;27;1309;-68
2023/06/15 01:21:13;;;;;;;;;;;;;;;;;;5133811;27;1914;-68
2023/06/15 01:23:41;;;;;;;;;;;;;;;;;;5133341;27;1426;-68
2023/06/15 01:26:07;;;;;;;;;;;;;;;;;;5132572;27;1229;-68
2023/06/15 01:28:45;;;;;;;;;;;;;;;;;;5134180;27;844;-68
2023/06/15 01:31:11;;;;;;;;;;;;;;;;;;5132085;27;1354;-68
2023/06/15 01:33:44;;;;;;;;;;;;;;;;;;5132268;27;1229;-68
2023/06/15 01:36:09;;;;;;;;;;;;;;;;;;5132412;27;1185;-68
2023/06/15 01:38:35;;;;;;;;;;;;;;;;;;5132300;27;1335;-68
2023/06/15 01:41:00;;;;;;;;;;;;;;;;;;5131335;27;1975;-68
2023/06/15 01:43:27;;;;;;;;;;;;;;;;;;5132310;27;1126;-68
2023/06/15 01:45:54;;;;;;;;;;;;;;;;;;5132608;27;895;-68
2023/06/15 01:48:20;;;;;;;;;;;;;;;;;;5133483;27;832;-68
2023/06/15 01:50:47;;;;;;;;;;;;;;;;;;5131075;27;1288;-68
2023/06/15 01:53:12;;;;;;;;;;;;;;;;;;5131534;27;1191;-68
2023/06/15 01:55:37;;;;;;;;;;;;;;;;;;5132147;27;800;-68
2023/06/15 01:58:03;;;;;;;;;;;;;;;;;;5132504;27;840;-68
2023/06/15 02:00:28;;;;;;;;;;;;;;;;;;5133079;27;1909;-68
2023/06/15 02:02:54;;;;;;;;;;;;;;;;;;5130968;27;1233;-68
2023/06/15 02:05:19;;;;;;;;;;;;;;;;;;5133021;27;899;-68
2023/06/15 02:07:45;;;;;;;;;;;;;;;;;;5133290;27;813;-68
2023/06/15 02:10:10;;;;;;;;;;;;;;;;;;5113982;27;1386;-68
2023/06/15 02:12:35;;;;;;;;;;;;;;;;;;5131558;27;1356;-68
2023/06/15 02:15:03;;;;;;;;;;;;;;;;;;5114528;27;1250;-68
2023/06/15 02:17:32;;;;;;;;;;;;;;;;;;5133160;27;872;-68
2023/06/15 02:19:57;;;;;;;;;;;;;;;;;;5132293;27;1901;-68
2023/06/15 02:22:22;;;;;;;;;;;;;;;;;;5133160;27;876;-68
2023/06/15 02:24:48;;;;;;;;;;;;;;;;;;5132716;27;995;-68
2023/06/15 02:27:13;;;;;;;;;;;;;;;;;;5132179;27;1293;-68
2023/06/15 02:29:39;;;;;;;;;;;;;;;;;;5133065;27;773;-68
2023/06/15 02:32:04;;;;;;;;;;;;;;;;;;5131275;27;1190;-68
2023/06/15 02:34:30;;;;;;;;;;;;;;;;;;5131799;27;1232;-67
2023/06/15 02:36:56;;;;;;;;;;;;;;;;;;5113165;27;1301;-68
2023/06/15 02:39:21;;;;;;;;;;;;;;;;;;5132258;27;852;-68
2023/06/15 02:41:46;;;;;;;;;;;;;;;;;;5131822;27;1958;-68
2023/06/15 02:44:12;;;;;;;;;;;;;;;;;;5131615;27;829;-68
2023/06/15 02:46:37;;;;;;;;;;;;;;;;;;5130975;28;797;-67
2023/06/15 02:49:02;;;;;;;;;;;;;;;;;;5136946;27;942;-68
2023/06/15 02:51:28;;;;;;;;;;;;;;;;;;5127786;28;1313;-68
2023/06/15 02:53:53;;;;;;;;;;;;;;;;;;5127130;27;1328;-68
2023/06/15 02:56:20;;;;;;;;;;;;;;;;;;5112549;28;1217;-68
2023/06/15 02:58:47;;;;;;;;;;;;;;;;;;5130239;27;1163;-68
2023/06/15 03:01:16;;;;;;;;;;;;;;;;;;5130968;27;1914;-68
2023/06/15 03:03:42;;;;;;;;;;;;;;;;;;5134824;27;1343;-68
2023/06/15 03:06:08;;;;;;;;;;;;;;;;;;5136141;27;910;-68
2023/06/15 03:08:33;;;;;;;;;;;;;;;;;;5134684;27;1182;-68
2023/06/15 03:10:59;;;;;;;;;;;;;;;;;;5135832;27;905;-68
2023/06/15 03:13:24;;;;;;;;;;;;;;;;;;5135507;27;844;-68
2023/06/15 03:15:49;;;;;;;;;;;;;;;;;;5136673;27;860;-68
2023/06/15 03:18:15;;;;;;;;;;;;;;;;;;5136161;27;851;-68
2023/06/15 03:20:43;;;;;;;;;;;;;;;;;;5118265;27;1894;-68
2023/06/15 03:23:10;;;;;;;;;;;;;;;;;;5136067;27;852;-68
2023/06/15 03:25:35;;;;;;;;;;;;;;;;;;5117745;27;1218;-68
2023/06/15 03:28:01;;;;;;;;;;;;;;;;;;5135677;27;954;-68
2023/06/15 03:30:27;;;;;;;;;;;;;;;;;;5134808;27;809;-68
2023/06/15 03:32:53;;;;;;;;;;;;;;;;;;5136056;27;855;-68
2023/06/15 03:35:18;;;;;;;;;;;;;;;;;;5134670;27;871;-68
2023/06/15 03:37:44;;;;;;;;;;;;;;;;;;5136012;27;809;-68
2023/06/15 03:40:09;;;;;;;;;;;;;;;;;;5134926;27;1972;-67
2023/06/15 03:42:35;;;;;;;;;;;;;;;;;;5134247;27;1182;-68
2023/06/15 03:45:00;;;;;;;;;;;;;;;;;;5136413;27;840;-68
2023/06/15 03:47:25;;;;;;;;;;;;;;;;;;5134210;27;1292;-64
2023/06/15 03:49:50;;;;;;;;;;;;;;;;;;5134860;27;765;-64
2023/06/15 03:52:16;;;;;;;;;;;;;;;;;;5134638;27;895;-64
2023/06/15 03:54:41;;;;;;;;;;;;;;;;;;5134159;27;809;-64
2023/06/15 03:57:06;;;;;;;;;;;;;;;;;;5135050;27;967;-64
2023/06/15 03:59:32;;;;;;;;;;;;;;;;;;5136156;27;923;-68
2023/06/15 04:01:57;;;;;;;;;;;;;;;;;;5135747;27;1902;-68
2023/06/15 04:04:22;;;;;;;;;;;;;;;;;;5136094;27;959;-68
2023/06/15 04:06:47;;;;;;;;;;;;;;;;;;5136380;27;832;-68
2023/06/15 04:09:17;;;;;;;;;;;;;;;;;;5134369;27;1216;-68
2023/06/15 04:11:42;;;;;;;;;;;;;;;;;;5136306;27;844;-68
2023/06/15 04:14:08;;;;;;;;;;;;;;;;;;5133382;27;824;-68
2023/06/15 04:16:33;;;;;;;;;;;;;;;;;;5133506;27;1194;-68
2023/06/15 04:18:59;;;;;;;;;;;;;;;;;;5133870;27;959;-67
2023/06/15 04:21:24;;;;;;;;;;;;;;;;;;5133804;27;1874;-63
2023/06/15 04:23:49;;;;;;;;;;;;;;;;;;5133227;27;876;-63
2023/06/15 04:26:17;;;;;;;;;;;;;;;;;;5134161;27;856;-63
2023/06/15 04:28:45;;;;;;;;;;;;;;;;;;5135159;27;816;-63
2023/06/15 04:31:12;;;;;;;;;;;;;;;;;;5132864;27;1118;-63
2023/06/15 04:33:44;;;;;;;;;;;;;;;;;;5134774;27;890;-67
2023/06/15 04:36:13;;;;;;;;;;;;;;;;;;5134676;27;939;-67
2023/06/15 04:38:40;;;;;;;;;;;;;;;;;;5135091;27;816;-67
2023/06/15 04:41:07;;;;;;;;;;;;;;;;;;5134030;27;1965;-68
2023/06/15 04:43:33;;;;;;;;;;;;;;;;;;5116906;27;1229;-68
2023/06/15 04:45:58;;;;;;;;;;;;;;;;;;5133610;27;1069;-68
2023/06/15 04:48:27;;;;;;;;;;;;;;;;;;5133216;27;1205;-68
2023/06/15 04:50:53;;;;;;;;;;;;;;;;;;5135232;27;820;-68
2023/06/15 04:53:19;;;;;;;;;;;;;;;;;;5115833;27;1280;-67
2023/06/15 04:55:44;;;;;;;;;;;;;;;;;;5133691;27;1288;-68
2023/06/15 04:58:09;;;;;;;;;;;;;;;;;;5132770;27;1343;-68
2023/06/15 05:00:35;;;;;;;;;;;;;;;;;;5133334;27;1905;-68
2023/06/15 05:03:00;;;;;;;;;;;;;;;;;;5133263;27;780;-68
2023/06/15 05:05:26;;;;;;;;;;;;;;;;;;5133687;27;1075;-68
2023/06/15 05:07:51;;;;;;;;;;;;;;;;;;5133079;27;1335;-68
2023/06/15 05:10:16;;;;;;;;;;;;;;;;;;5133790;27;824;-68
2023/06/15 05:12:41;;;;;;;;;;;;;;;;;;5134612;27;978;-68
2023/06/15 05:15:07;;;;;;;;;;;;;;;;;;5132887;27;1171;-68
2023/06/15 05:17:32;;;;;;;;;;;;;;;;;;5132817;27;797;-68
2023/06/15 05:19:58;;;;;;;;;;;;;;;;;;5133183;27;1963;-68
2023/06/15 05:22:23;;;;;;;;;;;;;;;;;;5133814;27;836;-68
2023/06/15 05:24:48;;;;;;;;;;;;;;;;;;5131987;27;1053;-69
2023/06/15 05:27:13;;;;;;;;;;;;;;;;;;5133349;27;880;-68
2023/06/15 05:29:39;;;;;;;;;;;;;;;;;;5133608;27;848;-68
2023/06/15 05:32:05;;;;;;;;;;;;;;;;;;5115373;27;1324;-68
2023/06/15 05:34:30;;;;;;;;;;;;;;;;;;5134792;27;915;-69
2023/06/15 05:36:55;;;;;;;;;;;;;;;;;;5134068;27;983;-68
2023/06/15 05:39:21;;;;;;;;;;;;;;;;;;5132908;27;884;-69
2023/06/15 05:41:46;;;;;;;;;;;;;;;;;;5134229;27;1902;-69
2023/06/15 05:44:11;;;;;;;;;;;;;;;;;;5133986;27;860;-69
2023/06/15 05:46:37;;;;;;;;;;;;;;;;;;5132352;27;1201;-69
2023/06/15 05:49:02;;;;;;;;;;;;;;;;;;5131580;27;954;-69
2023/06/15 05:51:27;;;;;;;;;;;;;;;;;;5132039;27;916;-69
2023/06/15 05:53:52;;;;;;;;;;;;;;;;;;5131649;27;824;-69
2023/06/15 05:56:18;;;;;;;;;;;;;;;;;;5131490;27;856;-69
2023/06/15 05:58:43;;;;;;;;;;;;;;;;;;5133627;27;1056;-69
2023/06/15 06:01:08;;;;;;;;;;;;;;;;;;5132130;27;1960;-69
2023/06/15 06:03:35;;;;;;;;;;;;;;;;;;5132882;27;879;-69
2023/06/15 06:06:01;;;;;;;;;;;;;;;;;;5133381;27;872;-66
2023/06/15 06:08:26;;;;;;;;;;;;;;;;;;5136400;27;1150;-68
2023/06/15 06:10:51;;;;;;;;;;;;;;;;;;5133730;27;875;-68
2023/06/15 06:13:16;;;;;;;;;;;;;;;;;;5132554;27;1002;-68
2023/06/15 06:15:42;;;;;;;;;;;;;;;;;;5133354;27;931;-68
2023/06/15 06:18:07;;;;;;;;;;;;;;;;;;5132479;27;828;-69
2023/06/15 06:20:33;;;;;;;;;;;;;;;;;;5114808;27;1939;-68
2023/06/15 06:22:58;;;;;;;;;;;;;;;;;;5132354;27;885;-68
2023/06/15 06:25:24;;;;;;;;;;;;;;;;;;5131400;27;868;-68
2023/06/15 06:27:49;;;;;;;;;;;;;;;;;;5132340;27;836;-67
2023/06/15 06:30:14;;;;;;;;;;;;;;;;;;5131339;27;816;-67
2023/06/15 06:32:40;;;;;;;;;;;;;;;;;;5131154;27;792;-67
2023/06/15 06:35:05;;;;;;;;;;;;;;;;;;5132154;27;812;-67
2023/06/15 06:37:31;;;;;;;;;;;;;;;;;;5131966;27;887;-67
2023/06/15 06:39:56;;;;;;;;;;;;;;;;;;5132146;27;1917;-68
2023/06/15 06:42:21;;;;;;;;;;;;;;;;;;5131469;28;1095;-68
2023/06/15 06:44:46;;;;;;;;;;;;;;;;;;5130983;28;1053;-67
2023/06/15 06:47:12;;;;;;;;;;;;;;;;;;5130980;28;753;-67
2023/06/15 06:49:37;;;;;;;;;;;;;;;;;;5114453;28;1237;-69
2023/06/15 06:52:03;;;;;;;;;;;;;;;;;;5130837;28;1122;-68
2023/06/15 06:54:28;;;;;;;;;;;;;;;;;;5130942;28;935;-68
2023/06/15 06:56:54;;;;;;;;;;;;;;;;;;5113933;28;1201;-68
2023/06/15 06:59:19;;;;;;;;;;;;;;;;;;5133232;28;1038;-68
2023/06/15 07:01:44;;;;;;;;;;;;;;;;;;5114873;28;1910;-68
2023/06/15 07:04:10;;;;;;;;;;;;;;;;;;5132610;27;852;-68
2023/06/15 07:06:35;;;;;;;;;;;;;;;;;;5133388;27;888;-68
2023/06/15 07:09:00;;;;;;;;;;;;;;;;;;5131283;27;1063;-68
2023/06/15 07:11:26;;;;;;;;;;;;;;;;;;5131115;27;1174;-68
2023/06/15 07:13:51;;;;;;;;;;;;;;;;;;5114605;28;1269;-68
2023/06/15 07:16:17;;;;;;;;;;;;;;;;;;5132584;28;828;-67
2023/06/15 07:18:42;;;;;;;;;;;;;;;;;;5133310;28;903;-67
2023/06/15 07:21:07;;;;;;;;;;;;;;;;;;5130947;28;1901;-68
2023/06/15 07:23:32;;;;;;;;;;;;;;;;;;5132782;28;887;-69
2023/06/15 07:25:58;;;;;;;;;;;;;;;;;;5131270;27;844;-68
2023/06/15 07:28:23;;;;;;;;;;;;;;;;;;5132097;28;1006;-68
2023/06/15 07:30:49;;;;;;;;;;;;;;;;;;5131192;28;1242;-68
2023/06/15 07:33:14;;;;;;;;;;;;;;;;;;5130141;28;1206;-68
2023/06/15 07:35:40;;;;;;;;;;;;;;;;;;5128038;27;1124;-68
2023/06/15 07:38:05;;;;;;;;;;;;;;;;;;5131206;28;1150;-68
2023/06/15 07:40:31;;;;;;;;;;;;;;;;;;5130201;28;1910;-67
2023/06/15 07:42:56;;;;;;;;;;;;;;;;;;5130620;28;1221;-68
2023/06/15 07:45:21;;;;;;;;;;;;;;;;;;5131303;28;809;-68
2023/06/15 07:47:47;;;;;;;;;;;;;;;;;;5132498;27;903;-68
2023/06/15 07:50:12;;;;;;;;;;;;;;;;;;5135786;27;832;-68
2023/06/15 07:52:37;;;;;;;;;;;;;;;;;;5135761;27;839;-68
2023/06/15 07:55:03;;;;;;;;;;;;;;;;;;5133235;27;1348;-68
2023/06/15 07:57:28;;;;;;;;;;;;;;;;;;5134134;27;1212;-68
2023/06/15 07:59:54;;;;;;;;;;;;;;;;;;5135342;27;857;-68
2023/06/15 08:02:19;;;;;;;;;;;;;;;;;;5133109;27;1914;-68
2023/06/15 08:04:45;;;;;;;;;;;;;;;;;;5135152;27;962;-68
2023/06/15 08:07:12;;;;;;;;;;;;;;;;;;5134995;27;804;-68
2023/06/15 08:09:37;;;;;;;;;;;;;;;;;;5133851;27;896;-69
2023/06/15 08:12:02;;;;;;;;;;;;;;;;;;5116126;27;1235;-68
2023/06/15 08:14:28;;;;;;;;;;;;;;;;;;5133995;27;828;-68
2023/06/15 08:16:53;;;;;;;;;;;;;;;;;;5135048;27;1153;-68
2023/06/15 08:19:18;;;;;;;;;;;;;;;;;;5134546;27;939;-68
2023/06/15 08:21:44;;;;;;;;;;;;;;;;;;5135291;27;1898;-68
2023/06/15 08:24:09;;;;;;;;;;;;;;;;;;5134852;27;865;-68
2023/06/15 08:26:35;;;;;;;;;;;;;;;;;;5134631;27;927;-68
2023/06/15 08:29:01;;;;;;;;;;;;;;;;;;5133751;27;987;-68
2023/06/15 08:31:26;;;;;;;;;;;;;;;;;;5133969;27;1201;-68
2023/06/15 08:33:51;;;;;;;;;;;;;;;;;;5134016;27;820;-69
2023/06/15 08:36:17;;;;;;;;;;;;;;;;;;5134103;27;828;-68
2023/06/15 08:38:42;;;;;;;;;;;;;;;;;;5116642;27;1165;-68
2023/06/15 08:41:07;;;;;;;;;;;;;;;;;;5133396;27;1913;-68
2023/06/15 08:43:33;;;;;;;;;;;;;;;;;;5135157;27;884;-68
2023/06/15 08:45:58;;;;;;;;;;;;;;;;;;5134835;27;828;-68
2023/06/15 08:48:26;;;;;;;;;;;;;;;;;;5134518;27;923;-68
2023/06/15 08:50:52;;;;;;;;;;;;;;;;;;5134495;27;923;-68
2023/06/15 08:53:17;;;;;;;;;;;;;;;;;;5115271;27;1202;-68
2023/06/15 08:55:43;;;;;;;;;;;;;;;;;;5134483;27;829;-68
2023/06/15 08:58:08;;;;;;;;;;;;;;;;;;5133579;27;801;-68
2023/06/15 09:00:35;;;;;;;;;;;;;;;;;;5115218;27;1898;-68
2023/06/15 09:03:02;;;;;;;;;;;;;;;;;;5133843;27;856;-68
2023/06/15 09:05:28;;;;;;;;;;;;;;;;;;5132768;27;1237;-68
2023/06/15 09:07:53;;;;;;;;;;;;;;;;;;5132702;27;1273;-68
2023/06/15 09:10:19;;;;;;;;;;;;;;;;;;5133879;27;805;-68
2023/06/15 09:12:45;;;;;;;;;;;;;;;;;;5133766;27;816;-68
2023/06/15 09:15:16;;;;;;;;;;;;;;;;;;5132439;27;1229;-68
2023/06/15 09:17:41;;;;;;;;;;;;;;;;;;5133051;27;1063;-68
2023/06/15 09:20:07;;;;;;;;;;;;;;;;;;5135616;27;1905;-68
2023/06/15 09:22:39;;;;;;;;;;;;;;;;;;5134137;27;851;-64
2023/06/15 09:25:10;;;;;;;;;;;;;;;;;;5132639;27;879;-64
2023/06/15 09:27:35;;;;;;;;;;;;;;;;;;5129635;27;1323;-63
2023/06/15 09:30:07;;;;;;;;;;;;;;;;;;5129775;27;871;-63
2023/06/15 09:32:33;;;;;;;;;;;;;;;;;;5132081;27;1092;-63
2023/06/15 09:34:59;;;;;;;;;;;;;;;;;;5132652;27;912;-63
2023/06/15 09:37:27;;;;;;;;;;;;;;;;;;5131057;27;1221;-63
2023/06/15 09:39:53;;;;;;;;;;;;;;;;;;5132967;27;1590;-63
2023/06/15 09:42:23;;;;;;;;;;;;;;;;;;5130860;27;1905;-63
2023/06/15 09:44:52;;;;;;;;;;;;;;;;;;5132641;27;935;-63
2023/06/15 09:47:17;;;;;;;;;;;;;;;;;;5132723;27;867;-63
2023/06/15 09:49:44;;;;;;;;;;;;;;;;;;5131516;27;1244;-63
2023/06/15 09:52:13;;;;;;;;;;;;;;;;;;5132363;27;1186;-68
2023/06/15 09:54:38;;;;;;;;;;;;;;;;;;5132234;27;1300;-68
2023/06/15 09:57:04;;;;;;;;;;;;;;;;;;5133747;27;832;-68
2023/06/15 09:59:29;;;;;;;;;;;;;;;;;;5134413;27;777;-68
2023/06/15 10:01:55;;;;;;;;;;;;;;;;;;5134900;27;1969;-67
2023/06/15 10:04:22;;;;;;;;;;;;;;;;;;5134479;27;891;-68
2023/06/15 10:06:50;;;;;;;;;;;;;;;;;;5135086;27;970;-67
2023/06/15 10:09:19;;;;;;;;;;;;;;;;;;5133684;27;1400;-66
2023/06/15 10:11:45;;;;;;;;;;;;;;;;;;5134179;27;856;-67
2023/06/15 10:14:14;;;;;;;;;;;;;;;;;;5134292;27;895;-67
2023/06/15 10:16:40;;;;;;;;;;;;;;;;;;5134308;27;836;-68
2023/06/15 10:19:10;;;;;;;;;;;;;;;;;;5133747;27;884;-68
2023/06/15 10:21:38;;;;;;;;;;;;;;;;;;5132221;27;1967;-68
2023/06/15 10:24:07;;;;;;;;;;;;;;;;;;5133309;27;891;-67
2023/06/15 10:26:33;;;;;;;;;;;;;;;;;;5131750;27;1293;-68
2023/06/15 10:29:02;;;;;;;;;;;;;;;;;;5133964;27;907;-68
2023/06/15 10:31:35;;;;;;;;;;;;;;;;;;5133413;27;816;-68
2023/06/15 10:34:09;;;;;;;;;;;;;;;;;;5131870;27;879;-68
2023/06/15 10:36:53;;;;;;;;;;;;;;;;;;5133381;27;846;-68
2023/06/15 10:39:22;;;;;;;;;;;;;;;;;;5131839;27;828;-63
2023/06/15 10:41:51;;;;;;;;;;;;;;;;;;5129745;27;1897;-64
2023/06/15 10:44:16;;;;;;;;;;;;;;;;;;5131699;27;872;-63
2023/06/15 10:46:41;;;;;;;;;;;;;;;;;;5131913;28;859;-63
2023/06/15 10:49:07;;;;;;;;;;;;;;;;;;5131863;27;1058;-64
2023/06/15 10:51:38;;;;;;;;;;;;;;;;;;5131444;28;906;-64
2023/06/15 10:54:05;;;;;;;;;;;;;;;;;;5129738;27;1296;-63
2023/06/15 10:56:30;;;;;;;;;;;;;;;;;;5130418;28;915;-68
2023/06/15 10:58:57;;;;;;;;;;;;;;;;;;5130449;28;1197;-68
2023/06/15 11:01:23;;;;;;;;;;;;;;;;;;5131720;28;1917;-68
2023/06/15 11:03:49;;;;;;;;;;;;;;;;;;5129871;27;1297;-68
2023/06/15 11:06:15;;;;;;;;;;;;;;;;;;5130675;27;844;-68
2023/06/15 11:08:52;;;;;;;;;;;;;;;;;;5129735;28;1216;-68
2023/06/15 11:11:18;;;;;;;;;;;;;;;;;;5131854;27;926;-69
2023/06/15 11:14:02;;;;;;;;;;;;;;;;;;5132396;28;824;-68
2023/06/15 11:16:35;;;;;;;;;;;;;;;;;;5132091;28;859;-68
2023/06/15 11:19:00;;;;;;;;;;;;;;;;;;5132897;28;848;-68
2023/06/15 11:21:31;;;;;;;;;;;;;;;;;;5132309;28;1992;-68
2023/06/15 11:23:57;;;;;;;;;;;;;;;;;;5135340;27;840;-69
2023/06/15 11:26:27;;;;;;;;;;;;;;;;;;5136949;27;899;-69
2023/06/15 11:28:57;;;;;;;;;;;;;;;;;;5135641;27;1193;-68
2023/06/15 11:31:22;;;;;;;;;;;;;;;;;;5136551;27;844;-68
2023/06/15 11:33:49;;;;;;;;;;;;;;;;;;5137000;27;883;-68
2023/06/15 11:36:14;;;;;;;;;;;;;;;;;;5135070;27;1245;-68
2023/06/15 11:38:39;;;;;;;;;;;;;;;;;;5135871;27;905;-69
2023/06/15 11:41:06;;;;;;;;;;;;;;;;;;5135101;27;1984;-68
2023/06/15 11:43:34;;;;;;;;;;;;;;;;;;5136009;27;872;-69
2023/06/15 11:45:59;;;;;;;;;;;;;;;;;;5135818;27;1031;-69
2023/06/15 11:48:25;;;;;;;;;;;;;;;;;;5135251;27;871;-68
2023/06/15 11:50:50;;;;;;;;;;;;;;;;;;5134566;27;1319;-68
2023/06/15 11:53:19;;;;;;;;;;;;;;;;;;5135480;27;808;-68
2023/06/15 11:55:47;;;;;;;;;;;;;;;;;;5136566;27;856;-68
2023/06/15 11:58:13;;;;;;;;;;;;;;;;;;5136104;27;824;-69
2023/06/15 12:00:38;;;;;;;;;;;;;;;;;;5135807;27;1968;-69
2023/06/15 12:03:08;;;;;;;;;;;;;;;;;;5135400;27;816;-68
2023/06/15 12:05:33;;;;;;;;;;;;;;;;;;5136230;27;939;-68
2023/06/15 12:07:59;;;;;;;;;;;;;;;;;;5134513;27;895;-68
2023/06/15 12:10:25;;;;;;;;;;;;;;;;;;5117884;27;1361;-64
2023/06/15 12:12:51;;;;;;;;;;;;;;;;;;5135464;27;847;-63
2023/06/15 12:15:17;;;;;;;;;;;;;;;;;;5133831;27;1304;-63
2023/06/15 12:17:42;;;;;;;;;;;;;;;;;;5135310;27;942;-64
2023/06/15 12:20:11;;;;;;;;;;;;;;;;;;5133440;27;1897;-64
2023/06/15 12:22:37;;;;;;;;;;;;;;;;;;5134602;27;935;-63
2023/06/15 12:25:03;;;;;;;;;;;;;;;;;;5133921;27;820;-64
2023/06/15 12:27:29;;;;;;;;;;;;;;;;;;5134476;27;816;-64
2023/06/15 12:29:55;;;;;;;;;;;;;;;;;;5115377;27;1209;-62
2023/06/15 12:32:24;;;;;;;;;;;;;;;;;;5132568;27;1300;-63
2023/06/15 12:34:52;;;;;;;;;;;;;;;;;;5133785;27;593;-63
2023/06/15 12:37:17;;;;;;;;;;;;;;;;;;5115273;27;1280;-63
2023/06/15 12:39:44;;;;;;;;;;;;;;;;;;5134268;27;1022;-63
2023/06/15 12:42:10;;;;;;;;;;;;;;;;;;5133111;27;1906;-64
2023/06/15 12:44:35;;;;;;;;;;;;;;;;;;5116133;27;1386;-63
2023/06/15 12:47:00;;;;;;;;;;;;;;;;;;5132417;27;1428;-63
2023/06/15 12:49:25;;;;;;;;;;;;;;;;;;5115044;27;1337;-63
2023/06/15 12:51:51;;;;;;;;;;;;;;;;;;5133726;27;958;-62
2023/06/15 12:54:16;;;;;;;;;;;;;;;;;;5132090;27;1420;-62
2023/06/15 12:56:41;;;;;;;;;;;;;;;;;;5132866;27;1321;-63
2023/06/15 12:59:07;;;;;;;;;;;;;;;;;;5133181;27;923;-63
2023/06/15 13:01:32;;;;;;;;;;;;;;;;;;5133732;27;1969;-63
2023/06/15 13:03:58;;;;;;;;;;;;;;;;;;5132386;27;855;-63
2023/06/15 13:06:23;;;;;;;;;;;;;;;;;;5133202;27;884;-63
2023/06/15 13:08:48;;;;;;;;;;;;;;;;;;5133671;27;911;-63
2023/06/15 13:11:13;;;;;;;;;;;;;;;;;;5132072;27;984;-63
2023/06/15 13:13:39;;;;;;;;;;;;;;;;;;5133402;27;906;-63
2023/06/15 13:16:04;;;;;;;;;;;;;;;;;;5133401;27;833;-63
2023/06/15 13:18:30;;;;;;;;;;;;;;;;;;5131228;27;1309;-62
2023/06/15 13:20:58;;;;;;;;;;;;;;;;;;5132116;27;1905;-67
2023/06/15 13:23:24;;;;;;;;;;;;;;;;;;5133613;27;820;-67
2023/06/15 13:25:49;;;;;;;;;;;;;;;;;;5132074;27;1308;-67
2023/06/15 13:28:14;;;;;;;;;;;;;;;;;;5132430;27;1177;-67
2023/06/15 13:30:40;;;;;;;;;;;;;;;;;;5132392;27;900;-67
2023/06/15 13:33:05;;;;;;;;;;;;;;;;;;5133266;27;765;-68
2023/06/15 13:35:30;;;;;;;;;;;;;;;;;;5133067;27;954;-67
2023/06/15 13:37:58;;;;;;;;;;;;;;;;;;5133486;27;943;-68
2023/06/15 13:40:23;;;;;;;;;;;;;;;;;;5132888;27;1902;-67
2023/06/15 13:42:49;;;;;;;;;;;;;;;;;;5133975;27;792;-68
2023/06/15 13:45:16;;;;;;;;;;;;;;;;;;5114405;28;1486;-68
2023/06/15 13:47:44;;;;;;;;;;;;;;;;;;5132216;27;832;-67
2023/06/15 13:50:11;;;;;;;;;;;;;;;;;;5132884;27;871;-67
2023/06/15 13:52:36;;;;;;;;;;;;;;;;;;5133710;27;860;-68
2023/06/15 13:55:02;;;;;;;;;;;;;;;;;;5132159;27;1320;-67
2023/06/15 13:57:28;;;;;;;;;;;;;;;;;;5132722;27;1299;-67
2023/06/15 13:59:53;;;;;;;;;;;;;;;;;;5132837;27;1446;-67
2023/06/15 14:02:19;;;;;;;;;;;;;;;;;;5133881;27;1909;-68
2023/06/15 14:04:45;;;;;;;;;;;;;;;;;;5133038;27;919;-68
2023/06/15 14:07:10;;;;;;;;;;;;;;;;;;5131891;27;1294;-68
2023/06/15 14:09:36;;;;;;;;;;;;;;;;;;5132294;27;1314;-68
2023/06/15 14:12:01;;;;;;;;;;;;;;;;;;5132424;27;903;-69
2023/06/15 14:14:27;;;;;;;;;;;;;;;;;;5115008;27;1181;-67
2023/06/15 14:16:55;;;;;;;;;;;;;;;;;;5133192;27;938;-69
2023/06/15 14:19:22;;;;;;;;;;;;;;;;;;5132854;27;974;-68
2023/06/15 14:21:47;;;;;;;;;;;;;;;;;;5133229;27;1976;-68
2023/06/15 14:24:13;;;;;;;;;;;;;;;;;;5131138;27;1009;-68
2023/06/15 14:26:38;;;;;;;;;;;;;;;;;;5131784;27;1329;-69
2023/06/15 14:29:03;;;;;;;;;;;;;;;;;;5114207;28;1289;-69
2023/06/15 14:31:28;;;;;;;;;;;;;;;;;;5131358;27;1265;-68
2023/06/15 14:33:54;;;;;;;;;;;;;;;;;;5130681;27;1093;-69
2023/06/15 14:36:22;;;;;;;;;;;;;;;;;;5132411;27;887;-68
2023/06/15 14:38:47;;;;;;;;;;;;;;;;;;5131136;27;1277;-69
2023/06/15 14:41:13;;;;;;;;;;;;;;;;;;5113113;27;1981;-69
2023/06/15 14:43:38;;;;;;;;;;;;;;;;;;5131275;27;1351;-69
2023/06/15 14:46:03;;;;;;;;;;;;;;;;;;5131014;28;1080;-68
2023/06/15 14:48:29;;;;;;;;;;;;;;;;;;5131308;28;1010;-70
2023/06/15 14:50:54;;;;;;;;;;;;;;;;;;5129695;28;1250;-69
2023/06/15 14:53:19;;;;;;;;;;;;;;;;;;5131498;27;784;-68
2023/06/15 14:55:45;;;;;;;;;;;;;;;;;;5130875;27;939;-68
2023/06/15 14:58:10;;;;;;;;;;;;;;;;;;5133598;27;934;-68
2023/06/15 15:00:37;;;;;;;;;;;;;;;;;;5134797;27;1913;-69
2023/06/15 15:03:03;;;;;;;;;;;;;;;;;;5136109;27;855;-69
2023/06/15 15:05:28;;;;;;;;;;;;;;;;;;5135402;27;758;-69
2023/06/15 15:07:54;;;;;;;;;;;;;;;;;;5134996;27;891;-69
2023/06/15 15:10:19;;;;;;;;;;;;;;;;;;5116452;27;1225;-68
2023/06/15 15:12:46;;;;;;;;;;;;;;;;;;5134924;27;1041;-69
2023/06/15 15:15:12;;;;;;;;;;;;;;;;;;5134672;27;1182;-69
2023/06/15 15:17:37;;;;;;;;;;;;;;;;;;5135287;27;1392;-68
2023/06/15 15:20:04;;;;;;;;;;;;;;;;;;5134728;27;1078;-68
2023/06/15 15:22:29;;;;;;;;;;;;;;;;;;5135640;27;1898;-68
2023/06/15 15:24:54;;;;;;;;;;;;;;;;;;5134936;27;1276;-68
2023/06/15 15:27:22;;;;;;;;;;;;;;;;;;5135864;27;947;-69
2023/06/15 15:29:47;;;;;;;;;;;;;;;;;;5134844;27;1205;-69
2023/06/15 15:32:12;;;;;;;;;;;;;;;;;;5134663;27;928;-69
2023/06/15 15:34:38;;;;;;;;;;;;;;;;;;5134772;27;1328;-69
2023/06/15 15:37:03;;;;;;;;;;;;;;;;;;5134343;27;833;-69
2023/06/15 15:39:28;;;;;;;;;;;;;;;;;;5135457;27;935;-68
2023/06/15 15:41:55;;;;;;;;;;;;;;;;;;5135653;27;1969;-69
2023/06/15 15:44:20;;;;;;;;;;;;;;;;;;5135176;27;773;-69
2023/06/15 15:46:45;;;;;;;;;;;;;;;;;;5135819;27;864;-69
2023/06/15 15:49:11;;;;;;;;;;;;;;;;;;5135264;27;863;-69
2023/06/15 15:51:36;;;;;;;;;;;;;;;;;;5135715;27;852;-69
2023/06/15 15:54:01;;;;;;;;;;;;;;;;;;5138966;27;832;-68
2023/06/15 15:56:27;;;;;;;;;;;;;;;;;;5139337;27;954;-68
2023/06/15 15:58:52;;;;;;;;;;;;;;;;;;5134966;27;929;-68
2023/06/15 16:01:18;;;;;;;;;;;;;;;;;;5133426;27;1914;-69
2023/06/15 16:03:46;;;;;;;;;;;;;;;;;;5135226;27;891;-69
2023/06/15 16:06:11;;;;;;;;;;;;;;;;;;5134006;27;1208;-69
2023/06/15 16:08:36;;;;;;;;;;;;;;;;;;5134280;27;1253;-70
2023/06/15 16:11:04;;;;;;;;;;;;;;;;;;5134880;27;903;-69
2023/06/15 16:13:30;;;;;;;;;;;;;;;;;;5135329;27;883;-69
2023/06/15 16:15:55;;;;;;;;;;;;;;;;;;5135952;27;911;-70
2023/06/15 16:18:20;;;;;;;;;;;;;;;;;;5134022;27;926;-70
2023/06/15 16:20:45;;;;;;;;;;;;;;;;;;5135624;27;1902;-69
2023/06/15 16:23:11;;;;;;;;;;;;;;;;;;5135325;27;887;-70
2023/06/15 16:25:36;;;;;;;;;;;;;;;;;;5135521;27;1151;-70
2023/06/15 16:28:01;;;;;;;;;;;;;;;;;;5116677;27;1166;-70
2023/06/15 16:30:26;;;;;;;;;;;;;;;;;;5135070;27;895;-70
2023/06/15 16:32:52;;;;;;;;;;;;;;;;;;5134475;27;1265;-69
2023/06/15 16:35:17;;;;;;;;;;;;;;;;;;5133369;27;1166;-69
2023/06/15 16:37:43;;;;;;;;;;;;;;;;;;5134424;27;825;-69
2023/06/15 16:40:08;;;;;;;;;;;;;;;;;;5135622;27;1053;-70
2023/06/15 16:42:34;;;;;;;;;;;;;;;;;;5133685;27;1893;-69
2023/06/15 16:45:02;;;;;;;;;;;;;;;;;;5134283;27;1189;-69
2023/06/15 16:47:28;;;;;;;;;;;;;;;;;;5134481;27;895;-69
2023/06/15 16:49:54;;;;;;;;;;;;;;;;;;5133393;27;820;-69
2023/06/15 16:52:19;;;;;;;;;;;;;;;;;;5132973;27;1096;-69
2023/06/15 16:54:45;;;;;;;;;;;;;;;;;;5135140;27;958;-69
2023/06/15 16:57:12;;;;;;;;;;;;;;;;;;5134991;27;864;-68
2023/06/15 16:59:39;;;;;;;;;;;;;;;;;;5134134;27;832;-68
2023/06/15 17:02:05;;;;;;;;;;;;;;;;;;5132191;27;1910;-68
2023/06/15 17:04:30;;;;;;;;;;;;;;;;;;5134314;27;812;-68